createdAt,value
2024-03-09T00:00:20.795Z,37.83
2024-03-09T00:02:38.000Z,36.85
2024-03-09T00:04:55.100Z,39.42
2024-03-09T00:07:12.045Z,39.10
2024-03-09T00:09:28.976Z,34.53
2024-03-09T00:11:45.943Z,37.97
2024-03-09T00:14:02.921Z,39.75
2024-03-09T00:16:19.864Z,38.83
2024-03-09T00:18:44.154Z,36.40
2024-03-09T00:21:02.506Z,33.90
2024-03-09T00:23:19.467Z,38.38
2024-03-09T00:25:36.432Z,36.22
2024-03-09T00:27:53.453Z,37.10
2024-03-09T00:30:10.549Z,34.28
2024-03-09T00:32:27.554Z,33.88
2024-03-09T00:34:44.561Z,39.03
2024-03-09T00:37:01.501Z,34.70
2024-03-09T00:39:18.445Z,36.08
2024-03-09T00:41:35.333Z,33.08
2024-03-09T00:43:52.251Z,35.08
2024-03-09T00:46:09.138Z,38.65
2024-03-09T00:48:26.006Z,34.80
2024-03-09T00:50:42.897Z,31.33
2024-03-09T00:52:59.885Z,34.85
2024-03-09T00:55:17.070Z,33.50
2024-03-09T00:57:34.053Z,36.22
2024-03-09T00:59:50.989Z,34.20
2024-03-09T01:02:07.888Z,32.75
2024-03-09T01:04:24.838Z,35.33
2024-03-09T01:06:41.830Z,37.08
2024-03-09T01:08:58.856Z,40.22
2024-03-09T01:11:15.828Z,35.67
2024-03-09T01:13:32.793Z,34.42
2024-03-09T01:15:49.698Z,36.08
2024-03-09T01:18:06.662Z,34.83
2024-03-09T01:20:23.635Z,32.60
2024-03-09T01:22:40.621Z,34.92
2024-03-09T01:24:57.582Z,37.70
2024-03-09T01:27:14.592Z,33.67
2024-03-09T01:29:31.474Z,37.28
2024-03-09T01:31:48.608Z,37.00
2024-03-09T01:34:05.513Z,35.67
2024-03-09T01:36:22.430Z,35.08
2024-03-09T01:38:39.279Z,39.20
2024-03-09T01:40:56.282Z,39.70
2024-03-09T01:43:13.208Z,31.52
2024-03-09T01:45:30.155Z,36.55
2024-03-09T01:47:47.537Z,36.40
2024-03-09T01:50:04.516Z,35.28
2024-03-09T01:52:21.538Z,36.15
2024-03-09T01:54:39.876Z,36.28
2024-03-09T01:56:58.218Z,33.65
2024-03-09T01:59:15.224Z,33.55
2024-03-09T02:01:32.230Z,34.05
2024-03-09T02:03:49.179Z,37.28
2024-03-09T02:06:06.142Z,33.83
2024-03-09T02:08:22.991Z,36.15
2024-03-09T02:10:40.112Z,33.60
2024-03-09T02:12:57.214Z,37.13
2024-03-09T02:15:14.249Z,34.30
2024-03-09T02:17:31.232Z,32.30
2024-03-09T02:19:48.360Z,36.50
2024-03-09T02:22:05.298Z,33.75
2024-03-09T02:24:22.296Z,33.47
2024-03-09T02:26:39.305Z,34.10
2024-03-09T02:28:56.220Z,35.40
2024-03-09T02:31:13.158Z,37.22
2024-03-09T02:33:30.083Z,33.72
2024-03-09T02:35:47.103Z,37.40
2024-03-09T02:38:04.155Z,36.50
2024-03-09T02:40:21.115Z,36.78
2024-03-09T02:42:38.347Z,36.72
2024-03-09T02:44:55.241Z,37.08
2024-03-09T02:47:12.412Z,36.90
2024-03-09T02:49:29.417Z,38.50
2024-03-09T02:51:46.337Z,34.72
2024-03-09T02:54:03.270Z,35.92
2024-03-09T02:56:20.163Z,38.35
2024-03-09T02:58:37.051Z,35.38
2024-03-09T03:00:53.984Z,38.63
2024-03-09T03:03:10.899Z,43.38
2024-03-09T03:05:27.939Z,39.38
2024-03-09T03:07:44.984Z,42.63
2024-03-09T03:10:01.967Z,41.28
2024-03-09T03:12:18.867Z,37.70
2024-03-09T03:14:35.771Z,37.78
2024-03-09T03:16:52.817Z,36.90
2024-03-09T03:19:09.745Z,36.33
2024-03-09T03:21:26.678Z,38.13
2024-03-09T03:23:43.626Z,32.95
2024-03-09T03:26:00.576Z,37.45
2024-03-09T03:28:17.458Z,39.50
2024-03-09T03:30:34.379Z,35.85
2024-03-09T03:32:51.391Z,40.47
2024-03-09T03:35:08.631Z,33.88
2024-03-09T03:37:25.737Z,34.10
2024-03-09T03:39:42.673Z,34.03
2024-03-09T03:41:59.623Z,34.47
2024-03-09T03:44:16.559Z,32.97
2024-03-09T03:46:33.446Z,32.42
2024-03-09T03:48:50.374Z,31.27
2024-03-09T03:51:07.450Z,33.30
2024-03-09T03:53:24.358Z,33.15
2024-03-09T03:55:41.395Z,34.15
2024-03-09T03:57:58.270Z,33.90
2024-03-09T04:00:15.178Z,31.08
2024-03-09T04:02:32.094Z,34.25
2024-03-09T04:04:49.167Z,33.92
2024-03-09T04:07:06.157Z,32.08
2024-03-09T04:09:23.014Z,30.00
2024-03-09T04:11:40.204Z,31.45
2024-03-09T04:13:57.269Z,32.15
2024-03-09T04:16:14.232Z,30.85
2024-03-09T04:18:31.274Z,30.60
2024-03-09T04:20:48.244Z,35.53
2024-03-09T04:23:05.208Z,37.08
2024-03-09T04:25:22.136Z,32.08
2024-03-09T04:27:39.065Z,29.83
2024-03-09T04:29:57.212Z,29.27
2024-03-09T04:32:14.133Z,29.60
2024-03-09T04:34:31.157Z,27.75
2024-03-09T04:36:48.164Z,28.20
2024-03-09T04:39:05.116Z,30.42
2024-03-09T04:41:22.047Z,30.40
2024-03-09T04:43:39.302Z,35.83
2024-03-09T04:45:56.474Z,33.75
2024-03-09T04:48:13.386Z,35.08
2024-03-09T04:50:30.356Z,26.98
2024-03-09T04:52:47.376Z,33.47
2024-03-09T04:55:04.339Z,28.48
2024-03-09T04:57:21.286Z,31.48
2024-03-09T04:59:38.317Z,29.10
2024-03-09T05:01:55.366Z,30.35
2024-03-09T05:04:12.426Z,29.75
2024-03-09T05:06:29.315Z,29.05
2024-03-09T05:08:46.206Z,31.58
2024-03-09T05:11:03.170Z,25.17
2024-03-09T05:13:20.046Z,29.42
2024-03-09T05:15:37.640Z,32.38
2024-03-09T05:17:55.489Z,26.52
2024-03-09T05:20:12.549Z,31.17
2024-03-09T05:22:29.503Z,29.02
2024-03-09T05:24:46.422Z,30.40
2024-03-09T05:27:03.371Z,29.75
2024-03-09T05:29:20.347Z,27.58
2024-03-09T05:31:37.339Z,27.17
2024-03-09T05:46:45.980Z,28.25
2024-03-09T05:49:02.962Z,30.70
2024-03-09T05:51:19.825Z,27.50
2024-03-09T05:53:36.753Z,29.15
2024-03-09T05:55:53.645Z,30.58
2024-03-09T05:58:10.613Z,27.48
2024-03-09T06:00:27.638Z,26.88
2024-03-09T06:02:47.188Z,27.55
2024-03-09T06:05:04.732Z,28.95
2024-03-09T06:07:21.664Z,29.38
2024-03-09T06:09:38.654Z,31.17
2024-03-09T06:11:55.792Z,26.15
2024-03-09T06:14:12.842Z,27.55
2024-03-09T06:16:29.803Z,30.25
2024-03-09T06:18:46.776Z,48.80
2024-03-09T06:21:03.680Z,27.20
2024-03-09T06:23:20.873Z,27.92
2024-03-09T06:25:37.934Z,29.27
2024-03-09T06:27:55.038Z,33.58
2024-03-09T06:30:12.051Z,31.02
2024-03-09T06:32:29.204Z,26.23
2024-03-09T06:34:46.161Z,27.13
2024-03-09T06:37:03.104Z,31.02
2024-03-09T06:39:20.038Z,29.15
2024-03-09T06:41:37.125Z,33.58
2024-03-09T06:43:54.110Z,28.27
2024-03-09T06:46:11.107Z,24.83
2024-03-09T06:48:28.075Z,29.70
2024-03-09T06:50:44.933Z,26.83
2024-03-09T06:53:01.948Z,30.98
2024-03-09T06:55:18.962Z,26.65
2024-03-09T06:57:36.073Z,28.80
2024-03-09T06:59:53.027Z,29.65
2024-03-09T07:02:09.940Z,29.27
2024-03-09T07:04:27.130Z,31.33
2024-03-09T07:06:44.236Z,30.08
2024-03-09T07:09:01.211Z,28.90
2024-03-09T07:11:20.470Z,30.67
2024-03-09T07:13:37.687Z,31.27
2024-03-09T07:15:54.964Z,30.17
2024-03-09T07:18:13.161Z,28.55
2024-03-09T07:20:30.702Z,36.08
2024-03-09T07:22:48.085Z,32.65
2024-03-09T07:25:05.014Z,31.13
2024-03-09T07:27:21.949Z,30.15
2024-03-09T07:29:38.893Z,32.33
2024-03-09T07:31:55.861Z,28.75
2024-03-09T07:34:12.800Z,30.15
2024-03-09T07:36:29.692Z,28.92
2024-03-09T07:38:46.781Z,31.17
2024-03-09T07:41:03.650Z,29.08
2024-03-09T07:43:20.712Z,31.77
2024-03-09T07:45:37.599Z,26.33
2024-03-09T07:47:54.984Z,28.27
2024-03-09T07:50:12.034Z,31.20
2024-03-09T07:52:29.054Z,30.05
2024-03-09T07:54:46.132Z,31.25
2024-03-09T07:57:03.076Z,33.22
2024-03-09T07:59:20.129Z,29.67
2024-03-09T08:01:37.334Z,31.63
2024-03-09T08:03:54.288Z,33.50
2024-03-09T08:06:11.348Z,33.50
2024-03-09T08:08:28.317Z,32.90
2024-03-09T08:10:45.283Z,32.65
2024-03-09T08:13:02.240Z,30.27
2024-03-09T08:15:19.302Z,32.25
2024-03-09T08:17:36.492Z,32.22
2024-03-09T08:19:53.862Z,32.47
2024-03-09T08:22:10.726Z,31.40
2024-03-09T08:24:27.562Z,34.08
2024-03-09T08:26:44.606Z,30.15
2024-03-09T08:29:01.669Z,33.15
2024-03-09T08:31:18.834Z,29.90
2024-03-09T08:33:35.688Z,31.55
2024-03-09T08:35:52.558Z,32.95
2024-03-09T08:38:09.571Z,32.60
2024-03-09T08:40:26.554Z,33.47
2024-03-09T08:42:43.486Z,30.42
2024-03-09T08:45:00.523Z,30.67
2024-03-09T08:47:17.499Z,30.52
2024-03-09T08:49:34.485Z,32.53
2024-03-09T08:51:51.438Z,31.33
2024-03-09T08:54:08.409Z,29.27
2024-03-09T08:56:25.304Z,28.10
2024-03-09T08:58:42.322Z,29.90
2024-03-09T09:00:59.258Z,30.35
2024-03-09T09:03:16.301Z,29.90
2024-03-09T09:05:33.194Z,31.45
2024-03-09T09:07:51.270Z,27.98
2024-03-09T09:10:09.438Z,28.27
2024-03-09T09:12:26.528Z,26.40
2024-03-09T09:14:43.446Z,29.27
2024-03-09T09:17:00.457Z,26.00
2024-03-09T09:19:17.391Z,27.52
2024-03-09T09:21:34.313Z,28.00
2024-03-09T09:23:51.532Z,27.75
2024-03-09T09:26:08.452Z,25.10
2024-03-09T09:28:25.481Z,24.60
2024-03-09T09:30:42.530Z,26.25
2024-03-09T09:32:59.538Z,25.73
2024-03-09T09:35:16.474Z,24.10
2024-03-09T09:37:33.352Z,25.70
2024-03-09T09:39:50.413Z,24.13
2024-03-09T09:42:07.346Z,24.05
2024-03-09T09:44:24.327Z,25.73
2024-03-09T09:46:41.384Z,25.48
2024-03-09T09:48:58.280Z,25.38
2024-03-09T09:51:15.193Z,24.98
2024-03-09T09:53:32.225Z,24.20
2024-03-09T09:55:49.180Z,26.25
2024-03-09T09:58:06.166Z,24.55
2024-03-09T10:00:23.074Z,24.90
2024-03-09T10:02:40.006Z,24.27
2024-03-09T10:04:57.155Z,24.02
2024-03-09T10:07:14.086Z,23.83
2024-03-09T10:09:32.484Z,23.92
2024-03-09T10:11:51.306Z,28.35
2024-03-09T10:14:08.316Z,23.85
2024-03-09T10:16:25.233Z,27.02
2024-03-09T10:18:42.370Z,23.40
2024-03-09T10:20:59.364Z,25.02
2024-03-09T10:23:16.357Z,22.42
2024-03-09T10:25:33.258Z,24.63
2024-03-09T10:27:50.217Z,24.98
2024-03-09T10:30:07.259Z,21.73
2024-03-09T10:32:24.258Z,24.27
2024-03-09T10:34:41.308Z,22.83
2024-03-09T10:36:58.210Z,22.75
2024-03-09T10:39:15.248Z,24.23
2024-03-09T10:41:32.192Z,23.30
2024-03-09T10:43:49.170Z,22.75
2024-03-09T10:46:06.130Z,23.83
2024-03-09T10:48:23.073Z,24.02
2024-03-09T10:50:40.400Z,24.27
2024-03-09T10:52:57.286Z,22.58
2024-03-09T10:55:14.381Z,25.10
2024-03-09T10:57:31.353Z,24.75
2024-03-09T10:59:48.453Z,27.02
2024-03-09T11:02:05.507Z,24.67
2024-03-09T11:04:22.523Z,26.98
2024-03-09T11:06:39.570Z,26.33
2024-03-09T11:08:56.514Z,24.17
2024-03-09T11:11:13.479Z,24.90
2024-03-09T11:13:30.449Z,26.23
2024-03-09T11:15:50.281Z,29.25
2024-03-09T11:18:09.044Z,25.23
2024-03-09T11:20:26.049Z,23.63
2024-03-09T11:22:43.023Z,23.92
2024-03-09T11:25:00.028Z,26.92
2024-03-09T11:27:16.926Z,24.98
2024-03-09T11:29:33.823Z,27.23
2024-03-09T11:31:50.806Z,24.67
2024-03-09T11:34:07.818Z,25.90
2024-03-09T11:36:25.053Z,26.05
2024-03-09T11:38:41.949Z,25.75
2024-03-09T11:40:59.021Z,22.88
2024-03-09T11:43:16.294Z,29.67
2024-03-09T11:45:33.227Z,27.33
2024-03-09T11:47:50.102Z,25.45
2024-03-09T11:50:07.051Z,26.33
2024-03-09T11:52:24.001Z,24.98
2024-03-09T11:54:40.919Z,24.75
2024-03-09T11:56:58.048Z,24.20
2024-03-09T11:59:15.115Z,26.20
2024-03-09T12:01:32.451Z,109.28
2024-03-09T12:03:49.417Z,50.85
2024-03-09T12:06:06.274Z,26.65
2024-03-09T12:08:23.333Z,25.42
2024-03-09T12:10:40.503Z,24.67
2024-03-09T12:12:57.441Z,23.75
2024-03-09T12:15:14.525Z,23.75
2024-03-09T12:17:31.483Z,24.55
2024-03-09T12:19:48.442Z,22.15
2024-03-09T12:22:05.606Z,24.50
2024-03-09T12:24:22.451Z,22.98
2024-03-09T12:26:39.322Z,25.92
2024-03-09T12:28:56.536Z,23.38
2024-03-09T12:31:13.642Z,24.95
2024-03-09T12:33:30.650Z,25.73
2024-03-09T12:35:47.684Z,23.55
2024-03-09T12:38:04.570Z,24.13
2024-03-09T12:40:21.871Z,25.13
2024-03-09T12:42:38.782Z,22.42
2024-03-09T12:44:55.715Z,22.45
2024-03-09T12:47:12.729Z,22.65
2024-03-09T12:49:29.676Z,23.10
2024-03-09T12:51:46.649Z,22.75
2024-03-09T12:54:03.653Z,25.77
2024-03-09T12:56:20.642Z,22.73
2024-03-09T12:58:37.796Z,25.58
2024-03-09T13:00:54.745Z,25.58
2024-03-09T13:03:11.686Z,24.08
2024-03-09T13:05:28.743Z,24.38
2024-03-09T13:07:45.671Z,26.30
2024-03-09T13:10:05.363Z,25.10
2024-03-09T13:12:23.828Z,24.70
2024-03-09T13:14:40.865Z,25.90
2024-03-09T13:16:57.851Z,23.42
2024-03-09T13:19:14.849Z,24.60
2024-03-09T13:21:31.838Z,22.33
2024-03-09T13:23:48.804Z,24.58
2024-03-09T13:26:05.779Z,26.63
2024-03-09T13:28:22.822Z,24.55
2024-03-09T13:30:39.715Z,23.38
2024-03-09T13:32:56.677Z,23.70
2024-03-09T13:35:13.681Z,21.65
2024-03-09T13:37:30.639Z,23.17
2024-03-09T13:39:47.579Z,23.30
2024-03-09T13:42:04.570Z,25.75
2024-03-09T13:44:21.614Z,27.25
2024-03-09T13:46:38.654Z,25.58
2024-03-09T13:48:55.584Z,25.83
2024-03-09T13:51:12.677Z,24.92
2024-03-09T13:53:29.689Z,24.65
2024-03-09T13:55:46.653Z,24.95
2024-03-09T13:58:03.608Z,24.30
2024-03-09T14:00:20.629Z,25.17
2024-03-09T14:02:37.679Z,23.38
2024-03-09T14:04:54.728Z,24.50
2024-03-09T14:07:11.696Z,25.02
2024-03-09T14:09:28.625Z,24.48
2024-03-09T14:11:45.840Z,26.85
2024-03-09T14:14:02.870Z,23.90
2024-03-09T14:16:24.378Z,25.13
2024-03-09T14:18:43.861Z,23.27
2024-03-09T14:21:00.771Z,27.23
2024-03-09T14:23:17.804Z,23.88
2024-03-09T14:25:34.942Z,26.35
2024-03-09T14:27:52.159Z,24.63
2024-03-09T14:30:09.104Z,23.80
2024-03-09T14:32:26.068Z,24.73
2024-03-09T14:34:43.160Z,26.63
2024-03-09T14:37:00.228Z,24.50
2024-03-09T14:39:17.551Z,25.83
2024-03-09T14:41:34.984Z,24.40
2024-03-09T14:43:51.880Z,24.60
2024-03-09T14:46:09.024Z,23.73
2024-03-09T14:48:25.914Z,25.08
2024-03-09T14:50:42.856Z,22.23
2024-03-09T14:52:59.773Z,25.73
2024-03-09T14:55:17.060Z,26.40
2024-03-09T14:57:33.967Z,26.77
2024-03-09T14:59:50.938Z,24.55
2024-03-09T15:02:07.961Z,22.95
2024-03-09T15:04:25.002Z,24.08
2024-03-09T15:06:41.987Z,26.25
2024-03-09T15:08:58.935Z,24.92
2024-03-09T15:11:16.414Z,24.00
2024-03-09T15:13:33.520Z,25.55
2024-03-09T15:15:50.528Z,24.33
2024-03-09T15:18:07.826Z,25.00
2024-03-09T15:20:26.909Z,26.23
2024-03-09T15:22:44.865Z,25.30
2024-03-09T15:25:01.849Z,25.92
2024-03-09T15:27:18.873Z,26.85
2024-03-09T15:29:35.848Z,25.45
2024-03-09T15:31:52.787Z,23.52
2024-03-09T15:34:09.719Z,25.33
2024-03-09T15:36:26.759Z,23.25
2024-03-09T15:38:43.855Z,25.70
2024-03-09T15:41:01.032Z,27.75
2024-03-09T15:43:18.028Z,27.90
2024-03-09T15:45:34.911Z,24.25
2024-03-09T15:47:51.868Z,26.88
2024-03-09T15:50:08.962Z,25.98
2024-03-09T15:52:25.945Z,25.75
2024-03-09T15:54:42.871Z,27.95
2024-03-09T15:56:59.812Z,23.42
2024-03-09T15:59:16.871Z,25.77
2024-03-09T16:01:33.917Z,25.27
2024-03-09T16:03:50.860Z,24.65
2024-03-09T16:06:07.808Z,28.52
2024-03-09T16:08:24.834Z,28.83
2024-03-09T16:10:41.991Z,26.33
2024-03-09T16:12:59.049Z,26.40
2024-03-09T16:15:16.104Z,23.88
2024-03-09T16:17:33.101Z,22.15
2024-03-09T16:19:50.060Z,25.02
2024-03-09T16:22:07.027Z,26.80
2024-03-09T16:24:23.970Z,24.67
2024-03-09T16:26:40.859Z,25.88
2024-03-09T16:28:57.807Z,25.95
2024-03-09T16:31:14.759Z,27.33
2024-03-09T16:33:31.709Z,28.50
2024-03-09T16:35:49.551Z,28.02
2024-03-09T16:38:07.019Z,25.50
2024-03-09T16:40:23.960Z,27.45
2024-03-09T16:42:40.950Z,28.70
2024-03-09T16:44:57.889Z,25.92
2024-03-09T16:47:14.814Z,26.35
2024-03-09T16:49:34.019Z,27.90
2024-03-09T16:51:51.169Z,28.02
2024-03-09T16:54:08.215Z,24.85
2024-03-09T16:56:25.353Z,26.73
2024-03-09T16:58:42.457Z,27.98
2024-03-09T17:00:59.555Z,34.35
2024-03-09T17:03:16.567Z,33.97
2024-03-09T17:05:33.478Z,34.58
2024-03-09T17:07:50.472Z,30.35
2024-03-09T17:10:07.442Z,30.38
2024-03-09T17:12:24.431Z,24.80
2024-03-09T17:14:41.381Z,22.73
2024-03-09T17:16:58.360Z,22.00
2024-03-09T17:19:15.266Z,25.67
2024-03-09T17:21:32.157Z,23.92
2024-03-09T17:23:49.090Z,24.50
2024-03-09T17:26:06.084Z,20.65
2024-03-09T17:28:23.093Z,21.88
2024-03-09T17:30:40.031Z,21.13
2024-03-09T17:32:57.341Z,21.50
2024-03-09T17:35:14.396Z,19.92
2024-03-09T17:37:31.476Z,23.85
2024-03-09T17:39:48.376Z,21.85
2024-03-09T17:42:05.330Z,22.20
2024-03-09T17:44:22.326Z,21.60
2024-03-09T17:46:39.578Z,25.17
2024-03-09T17:48:56.556Z,24.38
2024-03-09T17:51:13.479Z,24.00
2024-03-09T17:53:30.475Z,21.00
2024-03-09T17:55:47.471Z,23.77
2024-03-09T17:58:04.415Z,22.63
2024-03-09T18:00:21.529Z,23.02
2024-03-09T18:02:38.535Z,20.70
2024-03-09T18:04:55.449Z,20.50
2024-03-09T18:07:12.397Z,21.50
2024-03-09T18:09:29.345Z,24.67
2024-03-09T18:11:46.402Z,22.60
2024-03-09T18:14:03.377Z,22.75
2024-03-09T18:16:20.370Z,19.25
2024-03-09T18:18:37.327Z,22.17
2024-03-09T18:20:54.276Z,23.88
2024-03-09T18:23:11.506Z,22.50
2024-03-09T18:25:28.657Z,19.58
2024-03-09T18:27:45.575Z,19.95
2024-03-09T18:30:02.580Z,20.30
2024-03-09T18:32:19.527Z,22.48
2024-03-09T18:34:36.394Z,25.60
2024-03-09T18:36:53.322Z,24.48
2024-03-09T18:39:10.250Z,26.35
2024-03-09T18:41:27.324Z,51.80
2024-03-09T18:43:44.319Z,35.92
2024-03-09T18:46:01.270Z,36.38
2024-03-09T18:48:18.250Z,35.90
2024-03-09T18:50:35.295Z,32.65
2024-03-09T18:52:52.369Z,39.00
2024-03-09T18:55:09.290Z,35.92
2024-03-09T18:57:26.294Z,36.55
2024-03-09T18:59:43.550Z,32.95
2024-03-09T19:02:00.877Z,33.50
2024-03-09T19:04:17.949Z,29.30
2024-03-09T19:06:34.919Z,22.17
2024-03-09T19:08:51.851Z,25.70
2024-03-09T19:11:08.898Z,22.05
2024-03-09T19:13:25.875Z,19.60
2024-03-09T19:15:42.836Z,22.50
2024-03-09T19:17:59.882Z,24.05
2024-03-09T19:20:18.926Z,24.88
2024-03-09T19:22:37.379Z,19.77
2024-03-09T19:24:54.260Z,20.67
2024-03-09T19:27:11.199Z,22.70
2024-03-09T19:29:28.183Z,23.35
2024-03-09T19:31:45.198Z,22.38
2024-03-09T19:34:02.171Z,24.33
2024-03-09T19:36:19.456Z,21.52
2024-03-09T19:38:36.380Z,21.05
2024-03-09T19:40:53.442Z,23.13
2024-03-09T19:43:10.420Z,23.77
2024-03-09T19:45:27.400Z,24.10
2024-03-09T19:47:44.312Z,21.15
2024-03-09T19:50:01.228Z,21.02
2024-03-09T19:52:18.255Z,20.45
2024-03-09T19:54:35.145Z,21.92
2024-03-09T19:56:52.308Z,20.58
2024-03-09T19:59:09.647Z,18.10
2024-03-09T20:01:26.616Z,20.33
2024-03-09T20:03:43.675Z,19.77
2024-03-09T20:06:00.678Z,20.67
2024-03-09T20:08:18.238Z,20.50
2024-03-09T20:10:35.245Z,20.20
2024-03-09T20:12:52.324Z,21.05
2024-03-09T20:15:09.261Z,21.98
2024-03-09T20:17:26.327Z,20.55
2024-03-09T20:19:43.562Z,21.02
2024-03-09T20:22:00.487Z,21.77
2024-03-09T20:24:17.561Z,19.83
2024-03-09T20:26:34.476Z,20.10
2024-03-09T20:28:51.442Z,20.70
2024-03-09T20:31:08.433Z,20.88
2024-03-09T20:33:25.407Z,22.50
2024-03-09T20:35:42.379Z,18.00
2024-03-09T20:37:59.357Z,18.95
2024-03-09T20:40:16.666Z,17.73
2024-03-09T20:42:33.940Z,23.35
2024-03-09T20:44:50.872Z,17.85
2024-03-09T20:47:07.867Z,19.15
2024-03-09T20:49:24.858Z,18.98
2024-03-09T20:51:41.800Z,21.88
2024-03-09T20:53:58.720Z,20.00
2024-03-09T20:56:15.672Z,19.77
2024-03-09T20:58:32.660Z,18.15
2024-03-09T21:00:49.691Z,17.27
2024-03-09T21:03:06.632Z,20.35
2024-03-09T21:05:23.557Z,17.48
2024-03-09T21:07:40.593Z,20.77
2024-03-09T21:09:57.569Z,19.65
2024-03-09T21:12:14.582Z,19.67
2024-03-09T21:14:31.628Z,19.83
2024-03-09T21:16:50.568Z,19.75
2024-03-09T21:19:07.739Z,18.15
2024-03-09T21:21:24.645Z,23.85
2024-03-09T21:23:41.573Z,20.45
2024-03-09T21:25:58.887Z,21.02
2024-03-09T21:28:15.780Z,22.17
2024-03-09T21:30:32.702Z,21.38
2024-03-09T21:32:49.948Z,22.35
2024-03-09T21:35:06.910Z,22.67
2024-03-09T21:37:23.824Z,23.17
2024-03-09T21:39:40.728Z,24.25
2024-03-09T21:41:57.731Z,20.98
2024-03-09T21:44:14.678Z,21.90
2024-03-09T21:46:31.571Z,21.65
2024-03-09T21:48:48.585Z,21.30
2024-03-09T21:51:08.674Z,25.05
2024-03-09T21:53:26.388Z,28.02
2024-03-09T21:55:43.387Z,20.65
2024-03-09T21:58:00.330Z,25.13
2024-03-09T22:00:17.216Z,21.63
2024-03-09T22:02:34.261Z,23.17
2024-03-09T22:04:51.295Z,22.63
2024-03-09T22:07:08.235Z,23.33
2024-03-09T22:09:25.177Z,21.65
2024-03-09T22:11:42.215Z,22.63
2024-03-09T22:13:59.260Z,21.50
2024-03-09T22:16:16.219Z,22.33
2024-03-09T22:18:33.076Z,23.45
2024-03-09T22:20:50.034Z,21.63
2024-03-09T22:23:07.151Z,21.25
2024-03-09T22:25:24.110Z,21.55
2024-03-09T22:27:40.969Z,23.95
2024-03-09T22:29:57.867Z,23.23
2024-03-09T22:32:14.796Z,24.20
2024-03-09T22:34:31.736Z,22.88
2024-03-09T22:36:48.658Z,23.50
2024-03-09T22:39:05.642Z,23.02
2024-03-09T22:41:22.616Z,22.30
2024-03-09T22:43:39.702Z,23.85
2024-03-09T22:45:56.628Z,26.42
2024-03-09T22:48:13.621Z,26.13
2024-03-09T22:50:30.599Z,24.60
2024-03-09T22:52:47.578Z,24.13
2024-03-09T22:55:04.502Z,26.23
2024-03-09T22:57:21.376Z,27.38
2024-03-09T22:59:38.320Z,22.50
2024-03-09T23:01:55.266Z,26.15
2024-03-09T23:04:12.182Z,26.58
2024-03-09T23:06:29.150Z,24.33
2024-03-09T23:08:46.077Z,26.17
2024-03-09T23:11:03.095Z,21.75
2024-03-09T23:13:20.011Z,24.65
2024-03-09T23:15:36.960Z,24.73
2024-03-09T23:17:54.248Z,26.67
2024-03-09T23:20:11.325Z,22.20
2024-03-09T23:22:28.251Z,26.23
2024-03-09T23:24:45.160Z,25.13
2024-03-09T23:27:02.148Z,30.52
2024-03-09T23:29:19.212Z,26.17
2024-03-09T23:31:36.226Z,31.33
2024-03-09T23:33:53.163Z,28.13
2024-03-09T23:36:10.023Z,25.83
2024-03-09T23:38:26.953Z,27.50
2024-03-09T23:40:43.921Z,26.50
2024-03-09T23:43:00.920Z,23.98
2024-03-09T23:45:18.223Z,22.48
2024-03-09T23:47:35.364Z,24.33
2024-03-09T23:49:52.393Z,28.83
2024-03-09T23:52:09.317Z,27.65
2024-03-09T23:54:26.245Z,28.25
2024-03-09T23:56:43.228Z,25.70
2024-03-09T23:59:00.196Z,24.05
